^^
Grace C. Lehan Memorial Weather Station Historical Data
Daily Summary for October 23, 2021 Units:  Metric    English   Both
Daily Weekly Monthly Yearly
  High: Low: Average:
Temperature: 16.4 °C 6.3 °C 11.7 °C
Dew Point: 7.5 °C 3.8 °C 5.9 °C
Humidity: 87% 51% 68%
Wind Speed: 7.2km/h 0km/h 0.3km/h
Wind Gust: 19.3km/h - -
Wind- - WNW
Pressure: 1014.8 hPa 1011.4 hPa -
Precipitation: 0 mm    
 
 
Tabular Data for October 23, 2021
Time Temperature Dew Point Pressure Wind Wind Speed Wind Gust Humidity Rainfall Rate (Hourly) solar
00:00 12.1 °C 6.8 °C 1012.4 hPa Calm   8 km/h 70% 0 mm 0 W/m2
00:09 12 °C 6.8 °C 1012.4 hPa Calm     70.6% 0 mm 0 W/m2
00:14 11.9 °C 6.9 °C 1012.4 hPa NW 1.3 km/h 8 km/h 71% 0 mm 0 W/m2
00:19 11.9 °C 6.8 °C 1012.4 hPa Calm   8 km/h 71% 0 mm 0 W/m2
00:24 11.9 °C 6.8 °C 1012.8 hPa Calm   8 km/h 71% 0 mm 0 W/m2
00:29 11.9 °C 6.8 °C 1012.8 hPa Calm   8 km/h 71% 0 mm 0 W/m2
00:34 11.9 °C 6.9 °C 1012.8 hPa Calm   8 km/h 71% 0 mm 0 W/m2
00:39 12 °C 6.9 °C 1012.8 hPa Calm     71% 0 mm 0 W/m2
00:44 12 °C 6.9 °C 1013.1 hPa Calm     71% 0 mm 0 W/m2
00:49 12.1 °C 6.9 °C 1013.1 hPa Calm     70.8% 0 mm 0 W/m2
00:54 12.1 °C 6.8 °C 1013.1 hPa Calm     70% 0 mm 0 W/m2
00:59 12.1 °C 6.7 °C 1013.1 hPa Calm     69.6% 0 mm 0 W/m2
01:04 12.1 °C 6.7 °C 1013.1 hPa Calm     69.4% 0 mm 0 W/m2
01:09 12.1 °C 6.7 °C 1013.1 hPa Calm     69.4% 0 mm 0 W/m2
01:14 12.1 °C 6.6 °C 1013.1 hPa Calm     69% 0 mm 0 W/m2
01:19 12.1 °C 6.6 °C 1013.1 hPa Calm     69% 0 mm 0 W/m2
01:24 12.1 °C 6.6 °C 1013.1 hPa Calm     69% 0 mm 0 W/m2
01:29 12.1 °C 6.6 °C 1013.1 hPa NW 0.8 km/h 6.4 km/h 69.1% 0 mm 0 W/m2
01:34 12.1 °C 6.4 °C 1012.8 hPa Calm   6.4 km/h 68.5% 0 mm 0 W/m2
01:39 12.1 °C 6.4 °C 1013.1 hPa Calm     68.2% 0 mm 0 W/m2
01:44 12 °C 6.3 °C 1013.1 hPa Calm   1.6 km/h 68% 0 mm 0 W/m2
01:49 12 °C 6 °C 1013.1 hPa Calm   1.6 km/h 66.9% 0 mm 0 W/m2
01:54 11.9 °C 6 °C 1013.1 hPa Calm   1.6 km/h 67% 0 mm 0 W/m2
01:59 11.9 °C 6 °C 1013.1 hPa Calm   1.6 km/h 67% 0 mm 0 W/m2
02:04 11.8 °C 5.8 °C 1012.8 hPa NNE 0.6 km/h 6.4 km/h 66.3% 0 mm 0 W/m2
02:09 11.8 °C 5.4 °C 1012.8 hPa NW 1.3 km/h 9.7 km/h 65% 0 mm 0 W/m2
02:14 11.7 °C 5.2 °C 1012.8 hPa NW 1.4 km/h 9.7 km/h 64.2% 0 mm 0 W/m2
02:19 11.7 °C 5.2 °C 1012.4 hPa Calm   9.7 km/h 64.5% 0 mm 0 W/m2
02:24 11.6 °C 5 °C 1012.4 hPa Calm   9.7 km/h 64% 0 mm 0 W/m2
02:29 11.5 °C 5 °C 1012.4 hPa Calm   9.7 km/h 64.3% 0 mm 0 W/m2
02:34 11.4 °C 5.2 °C 1012.4 hPa Calm   9.7 km/h 65.4% 0 mm 0 W/m2
02:39 11.3 °C 5.2 °C 1012.4 hPa Calm     66.2% 0 mm 0 W/m2
02:44 11.2 °C 5.2 °C 1012.4 hPa Calm   1.6 km/h 66.3% 0 mm 0 W/m2
02:49 11.1 °C 5.2 °C 1012.4 hPa Calm   1.6 km/h 66.8% 0 mm 0 W/m2
02:54 10.9 °C 5.1 °C 1012.4 hPa Calm   1.6 km/h 67% 0 mm 0 W/m2
02:59 10.9 °C 4.9 °C 1012.4 hPa Calm   1.6 km/h 66.5% 0 mm 0 W/m2
03:04 10.8 °C 4.9 °C 1012.4 hPa Calm   1.6 km/h 67% 0 mm 0 W/m2
03:09 10.8 °C 4.7 °C 1012.4 hPa Calm     66.1% 0 mm 0 W/m2
03:14 10.8 °C 4.6 °C 1012.4 hPa Calm     65.5% 0 mm 0 W/m2
03:19 10.7 °C 4.4 °C 1012.4 hPa Calm     65% 0 mm 0 W/m2
03:24 10.7 °C 4.4 °C 1012.4 hPa Calm   1.6 km/h 65.2% 0 mm 0 W/m2
03:29 10.7 °C 4.4 °C 1012.8 hPa Calm   1.6 km/h 65.2% 0 mm 0 W/m2
03:34 10.7 °C 4.3 °C 1012.8 hPa NW 0.3 km/h 9.7 km/h 65% 0 mm 0 W/m2
03:39 10.6 °C 4.1 °C 1012.8 hPa NW 1.1 km/h 9.7 km/h 64.3% 0 mm 0 W/m2
03:44 10.4 °C 4.1 °C 1013.1 hPa Calm   9.7 km/h 64.9% 0 mm 0 W/m2
03:49 10.3 °C 4.2 °C 1013.1 hPa Calm   9.7 km/h 66% 0 mm 0 W/m2
03:54 10.2 °C 4.1 °C 1013.1 hPa Calm   9.7 km/h 66.2% 0 mm 0 W/m2
03:59 10 °C 4.2 °C 1013.1 hPa Calm   9.7 km/h 67% 0 mm 0 W/m2
04:00 9.9 °C 3.8 °C 1013.1 hPa Calm   9.7 km/h 66% 0 mm 0 W/m2
04:09 9.7 °C 3.9 °C 1013.1 hPa Calm     67.3% 0 mm 0 W/m2
04:14 9.6 °C 4.1 °C 1013.4 hPa Calm     68.4% 0 mm 0 W/m2
04:19 9.4 °C 3.9 °C 1013.4 hPa Calm     68.6% 0 mm 0 W/m2
04:24 9.3 °C 3.9 °C 1013.4 hPa Calm     69% 0 mm 0 W/m2
04:29 9.3 °C 3.9 °C 1013.1 hPa Calm   1.6 km/h 69% 0 mm 0 W/m2
04:34 9.2 °C 4 °C 1013.1 hPa Calm   1.6 km/h 70% 0 mm 0 W/m2
04:39 9.1 °C 3.9 °C 1013.1 hPa Calm   1.6 km/h 70% 0 mm 0 W/m2
04:44 8.9 °C 3.9 °C 1013.1 hPa Calm   1.6 km/h 70.6% 0 mm 0 W/m2
04:49 8.9 °C 3.9 °C 1013.1 hPa Calm   1.6 km/h 71% 0 mm 0 W/m2
04:54 8.8 °C 3.8 °C 1013.1 hPa NW 0.5 km/h 6.4 km/h 71.2% 0 mm 0 W/m2
04:59 8.7 °C 3.9 °C 1013.1 hPa NW 1 km/h 8 km/h 72% 0 mm 0 W/m2
05:04 8.6 °C 3.8 °C 1013.1 hPa Calm   8 km/h 72% 0 mm 0 W/m2
05:09 8.5 °C 3.9 °C 1013.1 hPa Calm     72.8% 0 mm 0 W/m2
05:14 8.4 °C 3.9 °C 1013.1 hPa Calm     73% 0 mm 0 W/m2
05:19 8.3 °C 3.9 °C 1013.4 hPa Calm     73.6% 0 mm 0 W/m2
05:24 8.3 °C 3.9 °C 1013.4 hPa Calm     74% 0 mm 0 W/m2
05:29 8.2 °C 3.8 °C 1013.4 hPa Calm     74% 0 mm 0 W/m2
05:34 8.1 °C 3.9 °C 1013.4 hPa Calm     74.8% 0 mm 0 W/m2
05:39 8.1 °C 3.9 °C 1013.4 hPa Calm     75% 0 mm 0 W/m2
05:44 8 °C 3.8 °C 1013.4 hPa Calm     75% 0 mm 0 W/m2
05:49 7.9 °C 3.8 °C 1013.4 hPa Calm     75% 0 mm 0 W/m2
05:54 7.8 °C 3.8 °C 1013.4 hPa Calm     75.8% 0 mm 0 W/m2
05:59 7.8 °C 3.8 °C 1013.4 hPa Calm     76% 0 mm 0 W/m2
06:04 7.7 °C 3.9 °C 1013.4 hPa Calm   1.6 km/h 76.5% 0 mm 0 W/m2
06:09 7.7 °C 3.9 °C 1013.4 hPa Calm   1.6 km/h 77% 0 mm 0 W/m2
06:14 7.6 °C 3.8 °C 1013.4 hPa Calm   1.6 km/h 77% 0 mm 0 W/m2
06:19 7.5 °C 3.9 °C 1013.4 hPa Calm   1.6 km/h 77.8% 0 mm 0 W/m2
06:24 7.4 °C 3.9 °C 1013.4 hPa Calm   1.6 km/h 78% 0 mm 0 W/m2
06:29 7.4 °C 3.8 °C 1013.4 hPa Calm   1.6 km/h 78% 0 mm 0 W/m2
06:34 7.3 °C 3.9 °C 1013.4 hPa Calm   1.6 km/h 79% 0 mm 0 W/m2
06:39 7.2 °C 3.8 °C 1013.4 hPa Calm     79.4% 0 mm 0 W/m2
06:44 7 °C 3.8 °C 1013.4 hPa Calm     80.1% 0 mm 0 W/m2
06:49 6.9 °C 3.9 °C 1013.4 hPa Calm     81% 0 mm 0 W/m2
06:54 6.8 °C 3.8 °C 1013.4 hPa Calm     81.1% 0 mm 0 W/m2
06:59 6.7 °C 3.9 °C 1013.4 hPa Calm     82% 0 mm 0 W/m2
07:04 6.7 °C 3.8 °C 1013.4 hPa Calm     82% 0 mm 0 W/m2
07:09 6.6 °C 3.8 °C 1013.4 hPa Calm     82.2% 0 mm 0 W/m2
07:14 6.5 °C 3.8 °C 1013.4 hPa Calm     83% 0 mm 0 W/m2
07:19 6.4 °C 3.8 °C 1013.8 hPa Calm     83% 0 mm 5 W/m2
07:24 6.4 °C 3.9 °C 1013.8 hPa Calm     83.8% 0 mm 9 W/m2
07:29 6.4 °C 3.9 °C 1013.8 hPa Calm     84% 0 mm 14 W/m2
07:34 6.3 °C 3.8 °C 1013.8 hPa Calm     84% 0 mm 23 W/m2
07:39 6.3 °C 3.9 °C 1013.4 hPa Calm     84.8% 0 mm 26 W/m2
07:44 6.3 °C 3.9 °C 1013.4 hPa Calm     85% 0 mm 28 W/m2
07:49 6.3 °C 4.1 °C 1013.4 hPa Calm     85.5% 0 mm 40 W/m2
07:54 6.4 °C 4.2 °C 1013.4 hPa Calm     86% 0 mm 62 W/m2
07:59 6.4 °C 4.3 °C 1013.8 hPa Calm     86% 0 mm 86 W/m2
08:00 6.5 °C 4.3 °C 1013.8 hPa Calm     86% 0 mm 86 W/m2
08:09 6.7 °C 4.6 °C 1013.8 hPa Calm     86.4% 0 mm 84 W/m2
08:14 6.8 °C 4.8 °C 1014.1 hPa Calm     87% 0 mm 109 W/m2
08:19 7.1 °C 5 °C 1014.1 hPa Calm     87% 0 mm 111 W/m2
08:24 7.2 °C 5.2 °C 1014.1 hPa Calm     86.7% 0 mm 95 W/m2
08:29 7.4 °C 5.3 °C 1014.1 hPa Calm     86% 0 mm 88 W/m2
08:34 7.7 °C 5.4 °C 1014.1 hPa Calm   1.6 km/h 85.6% 0 mm 88 W/m2
08:39 7.9 °C 5.5 °C 1014.1 hPa Calm   1.6 km/h 84.8% 0 mm 84 W/m2
08:44 8.2 °C 5.6 °C 1014.1 hPa Calm   1.6 km/h 83.7% 0 mm 81 W/m2
08:49 8.3 °C 5.6 °C 1014.1 hPa Calm   1.6 km/h 82.5% 0 mm 91 W/m2
08:54 8.6 °C 5.7 °C 1014.1 hPa Calm   1.6 km/h 82% 0 mm 144 W/m2
08:59 8.8 °C 5.8 °C 1014.1 hPa Calm   1.6 km/h 81.8% 0 mm 216 W/m2
09:04 9.1 °C 6.1 °C 1014.1 hPa Calm   1.6 km/h 81.4% 0 mm 309 W/m2
09:09 9.6 °C 6.3 °C 1014.1 hPa Calm   1.6 km/h 79.9% 0 mm 306 W/m2
09:14 9.9 °C 6.2 °C 1014.1 hPa Calm   1.6 km/h 77.7% 0 mm 181 W/m2
09:19 10.2 °C 6.2 °C 1014.1 hPa Calm   1.6 km/h 76.4% 0 mm 181 W/m2
09:24 10.3 °C 6.2 °C 1014.1 hPa Calm   1.6 km/h 75.8% 0 mm 137 W/m2
09:29 10.4 °C 6.2 °C 1014.1 hPa Calm   1.6 km/h 75% 0 mm 102 W/m2
09:34 10.4 °C 6.2 °C 1014.1 hPa Calm   1.6 km/h 75% 0 mm 193 W/m2
09:39 10.4 °C 6.2 °C 1014.1 hPa Calm     75% 0 mm 244 W/m2
09:44 10.5 °C 6.1 °C 1014.1 hPa Calm     74.2% 0 mm 264 W/m2
09:49 10.7 °C 6.2 °C 1014.1 hPa Calm     74.2% 0 mm 207 W/m2
09:54 10.8 °C 6.4 °C 1014.1 hPa Calm   1.6 km/h 74.4% 0 mm 146 W/m2
09:59 10.8 °C 6.2 °C 1014.1 hPa Calm   1.6 km/h 73% 0 mm 167 W/m2
10:04 10.8 °C 6.5 °C 1014.1 hPa Calm   1.6 km/h 74.4% 0 mm 178 W/m2
10:09 10.9 °C 6.9 °C 1014.1 hPa Calm     76.1% 0 mm 410 W/m2
10:14 11.3 °C 7.1 °C 1014.1 hPa Calm   1.6 km/h 75.5% 0 mm 738 W/m2
10:19 11.9 °C 7.1 °C 1014.1 hPa Calm   1.6 km/h 72.6% 0 mm 738 W/m2
10:24 12.1 °C 7.2 °C 1014.1 hPa Calm   1.6 km/h 71.7% 0 mm 163 W/m2
10:29 12.1 °C 6.8 °C 1014.1 hPa Calm   1.6 km/h 70% 0 mm 193 W/m2
10:34 11.9 °C 6.5 °C 1014.1 hPa Calm   1.6 km/h 69.3% 0 mm 193 W/m2
10:39 11.7 °C 6.3 °C 1014.1 hPa Calm     69.3% 0 mm 204 W/m2
10:44 11.6 °C 6.2 °C 1014.1 hPa Calm     69.4% 0 mm 202 W/m2
10:49 11.6 °C 6.2 °C 1014.1 hPa Calm     70% 0 mm 181 W/m2
10:54 11.4 °C 6.2 °C 1014.1 hPa Calm     69.9% 0 mm 192 W/m2
10:59 11.3 °C 6.1 °C 1013.8 hPa Calm   1.6 km/h 70.1% 0 mm 188 W/m2
11:04 11.3 °C 6.3 °C 1013.8 hPa Calm   1.6 km/h 71.7% 0 mm 232 W/m2
11:09 11.3 °C 6.3 °C 1013.8 hPa Calm     71.2% 0 mm 332 W/m2
11:14 11.5 °C 6.4 °C 1013.4 hPa Calm     70.9% 0 mm 424 W/m2
11:19 11.8 °C 6.8 °C 1013.4 hPa Calm   1.6 km/h 71.5% 0 mm 424 W/m2
11:24 12.2 °C 7.1 °C 1013.4 hPa Calm   1.6 km/h 70.9% 0 mm 292 W/m2
11:29 12.4 °C 6.6 °C 1013.4 hPa Calm   1.6 km/h 67.8% 0 mm 258 W/m2
11:34 12.5 °C 6.7 °C 1013.4 hPa Calm   1.6 km/h 67.5% 0 mm 260 W/m2
11:39 12.7 °C 7 °C 1013.4 hPa Calm     68.4% 0 mm 174 W/m2
11:44 12.7 °C 6.7 °C 1013.4 hPa Calm     66.8% 0 mm 304 W/m2
11:49 12.7 °C 6.8 °C 1013.8 hPa Calm     67.5% 0 mm 325 W/m2
11:54 12.7 °C 7.1 °C 1013.8 hPa Calm     68.7% 0 mm 274 W/m2
11:59 12.7 °C 7.2 °C 1013.8 hPa Calm     69.1% 0 mm 255 W/m2
12:00 12.8 °C 7.4 °C 1013.4 hPa Calm     70% 0 mm 241 W/m2
12:09 13.1 °C 7 °C 1013.4 hPa Calm     66.5% 0 mm 278 W/m2
12:14 13.2 °C 7.1 °C 1013.4 hPa Calm     66.2% 0 mm 223 W/m2
12:19 13.3 °C 7 °C 1013.4 hPa Calm     65.4% 0 mm 211 W/m2
12:24 13.3 °C 7 °C 1013.4 hPa Calm     65.7% 0 mm 274 W/m2
12:29 13.3 °C 7 °C 1013.4 hPa Calm     65.6% 0 mm 299 W/m2
12:34 13.4 °C 7.1 °C 1013.1 hPa North 0.2 km/h 1.6 km/h 65.3% 0 mm 246 W/m2
12:39 13.7 °C 7.2 °C 1013.1 hPa NNW 0.3 km/h 1.6 km/h 64.5% 0 mm 229 W/m2
12:44 14.1 °C 7.2 °C 1012.8 hPa Calm   1.6 km/h 63.4% 0 mm 332 W/m2
12:49 14.3 °C 7.1 °C 1012.8 hPa Calm   1.6 km/h 61.6% 0 mm 142 W/m2
12:54 14.6 °C 6.8 °C 1012.8 hPa Calm   1.6 km/h 59.9% 0 mm 144 W/m2
12:59 14.6 °C 6.9 °C 1012.8 hPa West 0.3 km/h 3.2 km/h 59.8% 0 mm 192 W/m2
13:04 14.7 °C 7.3 °C 1012.8 hPa WSW 0.2 km/h 3.2 km/h 61.1% 0 mm 146 W/m2
13:09 14.9 °C 7.4 °C 1012.4 hPa West 0.2 km/h 3.2 km/h 60.8% 0 mm 353 W/m2
13:14 15.1 °C 7.4 °C 1012.1 hPa NW 0.2 km/h 3.2 km/h 60.6% 0 mm 492 W/m2
13:19 15.2 °C 7.1 °C 1012.4 hPa West 3.1 km/h 12.9 km/h 58.5% 0 mm 492 W/m2
13:24 15.3 °C 7 °C 1012.4 hPa WNW 1 km/h 12.9 km/h 57.6% 0 mm 214 W/m2
13:29 15.4 °C 6.9 °C 1012.4 hPa WNW 0.3 km/h 12.9 km/h 56.8% 0 mm 214 W/m2
13:34 15.6 °C 6.9 °C 1012.4 hPa WNW 5.3 km/h 19.3 km/h 56% 0 mm 49 W/m2
13:39 15.7 °C 6.2 °C 1012.4 hPa NW 2.3 km/h 19.3 km/h 53.3% 0 mm 519 W/m2
13:44 15.7 °C 6.2 °C 1012.1 hPa WNW 3.5 km/h 19.3 km/h 52.9% 0 mm 443 W/m2
13:49 15.8 °C 6.3 °C 1012.1 hPa WNW 3.1 km/h 19.3 km/h 53.4% 0 mm 381 W/m2
13:54 15.8 °C 6.5 °C 1012.1 hPa WNW 2.4 km/h 19.3 km/h 53.7% 0 mm 381 W/m2
13:59 15.9 °C 6.5 °C 1011.7 hPa NW 1.3 km/h 19.3 km/h 53.5% 0 mm 223 W/m2
14:04 16 °C 6.2 °C 1011.7 hPa West 3.2 km/h 19.3 km/h 52.2% 0 mm 144 W/m2
14:09 16.1 °C 6.4 °C 1011.7 hPa SSE 1.8 km/h 12.9 km/h 53% 0 mm 178 W/m2
14:14 16.1 °C 6.9 °C 1011.7 hPa NW 3.1 km/h 12.9 km/h 54.7% 0 mm 186 W/m2
14:19 16.2 °C 6.4 °C 1011.7 hPa NW 1.3 km/h 12.9 km/h 52.4% 0 mm 185 W/m2
14:24 16.2 °C 6.2 °C 1011.7 hPa WNW 5.5 km/h 14.5 km/h 51.4% 0 mm 366 W/m2
14:29 16.1 °C 6.3 °C 1011.7 hPa WNW 0.5 km/h 14.5 km/h 52% 0 mm 322 W/m2
14:34 16.1 °C 6.3 °C 1011.7 hPa NNW 2.3 km/h 14.5 km/h 52.2% 0 mm 149 W/m2
14:39 16 °C 6.5 °C 1011.4 hPa NNW 0.2 km/h 14.5 km/h 53.1% 0 mm 123 W/m2
14:44 16.1 °C 6.7 °C 1011.4 hPa NNW 0.3 km/h 14.5 km/h 53.6% 0 mm 311 W/m2
14:49 16.2 °C 6.6 °C 1011.4 hPa NW 2.9 km/h 14.5 km/h 52.6% 0 mm 311 W/m2
14:54 16.2 °C 6.5 °C 1011.4 hPa NW 3.1 km/h 14.5 km/h 52.5% 0 mm 192 W/m2
14:59 16.3 °C 6.6 °C 1011.4 hPa WNW 3.4 km/h 14.5 km/h 52.8% 0 mm 192 W/m2
15:04 16.3 °C 6.6 °C 1011.4 hPa WNW 0.3 km/h 14.5 km/h 52.6% 0 mm 214 W/m2
15:09 16.4 °C 6.7 °C 1011.4 hPa WNW 0.2 km/h 3.2 km/h 52.8% 0 mm 156 W/m2
15:14 16.4 °C 6.5 °C 1011.4 hPa Calm   3.2 km/h 52% 0 mm 422 W/m2
15:19 16.4 °C 6.2 °C 1011.4 hPa WSW 0.2 km/h 3.2 km/h 51% 0 mm 366 W/m2
15:24 16.4 °C 6.7 °C 1011.4 hPa WNW 0.2 km/h 3.2 km/h 52.3% 0 mm 102 W/m2
15:29 16.3 °C 6.6 °C 1011.4 hPa Calm   3.2 km/h 52.4% 0 mm 100 W/m2
15:34 16.3 °C 6.6 °C 1011.4 hPa WNW 0.2 km/h 3.2 km/h 52.6% 0 mm 95 W/m2
15:39 16.1 °C 6.3 °C 1011.4 hPa WNW 5 km/h 12.9 km/h 52.2% 0 mm 74 W/m2
15:44 15.9 °C 5.9 °C 1011.4 hPa WNW 3.9 km/h 12.9 km/h 51.4% 0 mm 47 W/m2
15:49 15.7 °C 6.1 °C 1011.4 hPa Calm   12.9 km/h 52.9% 0 mm 91 W/m2
15:54 15.6 °C 6.3 °C 1011.4 hPa Calm   12.9 km/h 54% 0 mm 102 W/m2
15:59 15.6 °C 6.5 °C 1011.4 hPa Calm   12.9 km/h 54.8% 0 mm 88 W/m2
16:09 15.5 °C 6.3 °C 1011.4 hPa NW 1.3 km/h 14.5 km/h 54.2% 0 mm 63 W/m2
16:14 15.3 °C 5.9 °C 1011.7 hPa WNW 7.2 km/h 14.5 km/h 53.4% 0 mm 56 W/m2
16:19 15.2 °C 5.8 °C 1011.7 hPa West 4.8 km/h 14.5 km/h 53.3% 0 mm 54 W/m2
16:24 15.1 °C 5.8 °C 1011.7 hPa WNW 3.1 km/h 14.5 km/h 53.9% 0 mm 62 W/m2
16:29 15 °C 5.8 °C 1011.7 hPa West 0.8 km/h 14.5 km/h 54.3% 0 mm 53 W/m2
16:34 14.9 °C 5.9 °C 1011.7 hPa WNW 1.1 km/h 14.5 km/h 54.9% 0 mm 30 W/m2
16:39 14.8 °C 6.1 °C 1011.7 hPa Calm   11.3 km/h 55.8% 0 mm 37 W/m2
16:44 14.7 °C 6.1 °C 1011.7 hPa Calm   11.3 km/h 56% 0 mm 49 W/m2
16:49 14.7 °C 6.1 °C 1012.1 hPa Calm   11.3 km/h 56.3% 0 mm 53 W/m2
16:54 14.7 °C 6.2 °C 1012.1 hPa WNW 0.2 km/h 11.3 km/h 57% 0 mm 51 W/m2
16:59 14.6 °C 6.2 °C 1012.1 hPa Calm   11.3 km/h 57% 0 mm 47 W/m2
17:04 14.6 °C 6.4 °C 1012.1 hPa Calm     58% 0 mm 39 W/m2
17:09 14.6 °C 6.4 °C 1012.1 hPa Calm     58% 0 mm 37 W/m2
17:14 14.6 °C 6.6 °C 1012.4 hPa Calm     58.7% 0 mm 26 W/m2
17:19 14.6 °C 6.6 °C 1012.4 hPa Calm     59% 0 mm 23 W/m2
17:24 14.5 °C 6.6 °C 1012.4 hPa Calm   1.6 km/h 59% 0 mm 19 W/m2
17:29 14.4 °C 6.6 °C 1012.4 hPa Calm   1.6 km/h 59.4% 0 mm 18 W/m2
17:34 14.3 °C 6.4 °C 1012.8 hPa West 4.2 km/h 9.7 km/h 59.2% 0 mm 11 W/m2
17:39 14.2 °C 6.4 °C 1012.8 hPa Calm   9.7 km/h 59.2% 0 mm 9 W/m2
17:44 14.2 °C 6.3 °C 1012.8 hPa Calm   9.7 km/h 59% 0 mm 7 W/m2
17:49 14.1 °C 6.3 °C 1012.8 hPa Calm   9.7 km/h 59.6% 0 mm 5 W/m2
17:54 14 °C 6.4 °C 1012.8 hPa Calm   9.7 km/h 60.3% 0 mm 0 W/m2
17:59 13.9 °C 6.3 °C 1012.8 hPa Calm   9.7 km/h 60% 0 mm 0 W/m2
18:04 13.8 °C 6.3 °C 1012.8 hPa Calm   9.7 km/h 60.2% 0 mm 0 W/m2
18:09 13.8 °C 6.3 °C 1012.8 hPa Calm     60.6% 0 mm 0 W/m2
18:14 13.7 °C 6.3 °C 1012.8 hPa Calm     61% 0 mm 0 W/m2
18:19 13.6 °C 6.3 °C 1012.8 hPa Calm     61.3% 0 mm 0 W/m2
18:24 13.6 °C 6.4 °C 1013.1 hPa Calm     62% 0 mm 0 W/m2
18:29 13.4 °C 6.3 °C 1013.1 hPa Calm     62% 0 mm 0 W/m2
18:34 13.4 °C 6.4 °C 1013.1 hPa Calm     62.5% 0 mm 0 W/m2
18:39 13.3 °C 6.4 °C 1013.1 hPa Calm     62.7% 0 mm 0 W/m2
18:44 13.3 °C 6.4 °C 1013.1 hPa Calm     63.3% 0 mm 0 W/m2
18:49 13.3 °C 6.6 °C 1013.1 hPa Calm     64% 0 mm 0 W/m2
18:54 13.2 °C 6.6 °C 1013.4 hPa Calm     64% 0 mm 0 W/m2
18:59 13.2 °C 6.7 °C 1013.4 hPa Calm     64.6% 0 mm 0 W/m2
19:04 13.2 °C 6.7 °C 1013.1 hPa Calm     65.1% 0 mm 0 W/m2
19:09 13.1 °C 6.8 °C 1013.4 hPa Calm     65.8% 0 mm 0 W/m2
19:14 13.1 °C 6.8 °C 1013.4 hPa Calm     65.7% 0 mm 0 W/m2
19:19 13 °C 6.8 °C 1013.4 hPa Calm     66% 0 mm 0 W/m2
19:24 12.9 °C 6.7 °C 1013.1 hPa Calm   1.6 km/h 66% 0 mm 0 W/m2
19:29 12.9 °C 6.8 °C 1013.1 hPa Calm   1.6 km/h 66.6% 0 mm 0 W/m2
19:34 12.8 °C 6.7 °C 1013.1 hPa Calm   1.6 km/h 66.4% 0 mm 0 W/m2
19:39 12.8 °C 6.7 °C 1013.4 hPa Calm     66.7% 0 mm 0 W/m2
19:44 12.8 °C 6.7 °C 1013.4 hPa Calm     66.6% 0 mm 0 W/m2
19:49 12.7 °C 6.8 °C 1013.4 hPa Calm     67% 0 mm 0 W/m2
19:54 12.7 °C 6.7 °C 1013.8 hPa NW 0.2 km/h 1.6 km/h 66.8% 0 mm 0 W/m2
19:59 12.7 °C 6.5 °C 1013.8 hPa NNW 0.2 km/h 1.6 km/h 66% 0 mm 0 W/m2
20:09 12.6 °C 6.3 °C 1013.4 hPa NNW 0.2 km/h 1.6 km/h 65.8% 0 mm 0 W/m2
20:14 12.6 °C 6.2 °C 1013.4 hPa NNW 0.2 km/h 1.6 km/h 65% 0 mm 0 W/m2
20:19 12.5 °C 6.1 °C 1013.4 hPa NNW 0.2 km/h 1.6 km/h 65% 0 mm 0 W/m2
20:24 12.4 °C 6.1 °C 1013.4 hPa Calm   1.6 km/h 65% 0 mm 0 W/m2
20:29 12.4 °C 6 °C 1013.4 hPa NW 0.2 km/h 1.6 km/h 65% 0 mm 0 W/m2
20:34 12.4 °C 6.1 °C 1013.4 hPa Calm   1.6 km/h 65.3% 0 mm 0 W/m2
20:39 12.3 °C 6.1 °C 1013.4 hPa NW 1.4 km/h 11.3 km/h 65.4% 0 mm 0 W/m2
20:44 12.3 °C 5.9 °C 1013.8 hPa NNW 1 km/h 11.3 km/h 65% 0 mm 0 W/m2
20:49 12.2 °C 5.9 °C 1013.8 hPa NW 3.1 km/h 16.1 km/h 65.3% 0 mm 0 W/m2
20:54 12.2 °C 5.8 °C 1013.8 hPa Calm   16.1 km/h 65% 0 mm 0 W/m2
20:59 12.1 °C 5.9 °C 1013.8 hPa North 0.2 km/h 16.1 km/h 65.7% 0 mm 0 W/m2
21:04 12.1 °C 5.8 °C 1013.8 hPa Calm   16.1 km/h 65.4% 0 mm 0 W/m2
21:09 12 °C 5.7 °C 1013.8 hPa Calm   1.6 km/h 65.4% 0 mm 0 W/m2
21:14 11.9 °C 5.8 °C 1013.8 hPa North 0.2 km/h 1.6 km/h 65.8% 0 mm 0 W/m2
21:19 11.9 °C 5.8 °C 1014.1 hPa Calm   1.6 km/h 66% 0 mm 0 W/m2
21:24 11.9 °C 5.8 °C 1014.1 hPa Calm   1.6 km/h 66.1% 0 mm 0 W/m2
21:29 11.8 °C 5.8 °C 1014.1 hPa Calm   1.6 km/h 66.5% 0 mm 0 W/m2
21:34 11.8 °C 5.8 °C 1014.1 hPa Calm   1.6 km/h 66.5% 0 mm 0 W/m2
21:39 11.8 °C 5.8 °C 1014.1 hPa Calm     67% 0 mm 0 W/m2
21:44 11.8 °C 6 °C 1014.1 hPa Calm     67.7% 0 mm 0 W/m2
21:49 11.7 °C 6.3 °C 1014.1 hPa Calm     69.6% 0 mm 0 W/m2
21:54 11.7 °C 6.5 °C 1014.1 hPa Calm     70.2% 0 mm 0 W/m2
21:59 11.7 °C 6.6 °C 1014.4 hPa Calm     71% 0 mm 0 W/m2
22:04 11.6 °C 6.6 °C 1014.4 hPa Calm     71% 0 mm 0 W/m2
22:09 11.6 °C 6.4 °C 1014.4 hPa Calm     70.9% 0 mm 0 W/m2
22:14 11.5 °C 6.1 °C 1014.4 hPa Calm     69.4% 0 mm 0 W/m2
22:19 11.4 °C 5.9 °C 1014.4 hPa Calm     68.9% 0 mm 0 W/m2
22:24 11.4 °C 5.9 °C 1014.4 hPa Calm   1.6 km/h 68.8% 0 mm 0 W/m2
22:29 11.4 °C 5.9 °C 1014.4 hPa Calm   1.6 km/h 69% 0 mm 0 W/m2
22:34 11.4 °C 5.9 °C 1014.4 hPa Calm   1.6 km/h 69% 0 mm 0 W/m2
22:39 11.4 °C 6 °C 1014.4 hPa Calm     69.4% 0 mm 0 W/m2
22:44 11.3 °C 6.1 °C 1014.4 hPa Calm     69.8% 0 mm 0 W/m2
22:49 11.3 °C 6.1 °C 1014.4 hPa Calm     70.2% 0 mm 0 W/m2
22:54 11.3 °C 6.1 °C 1014.4 hPa Calm     70.6% 0 mm 0 W/m2
22:59 11.3 °C 6.3 °C 1014.4 hPa Calm     71.8% 0 mm 0 W/m2
23:04 11.2 °C 6.4 °C 1014.4 hPa Calm     72.4% 0 mm 0 W/m2
23:09 11.2 °C 6.5 °C 1014.4 hPa Calm     73% 0 mm 0 W/m2
23:14 11.1 °C 6.7 °C 1014.4 hPa Calm     74% 0 mm 0 W/m2
23:19 11.1 °C 6.9 °C 1014.4 hPa Calm     75.5% 0 mm 0 W/m2
23:24 11 °C 6.9 °C 1014.4 hPa Calm     76% 0 mm 0 W/m2
23:29 10.9 °C 7.1 °C 1014.4 hPa Calm     77% 0 mm 0 W/m2
23:34 10.8 °C 7.1 °C 1014.4 hPa Calm     77.4% 0 mm 0 W/m2
23:39 10.8 °C 7.3 °C 1014.4 hPa Calm     78.9% 0 mm 0 W/m2
23:44 10.7 °C 7.4 °C 1014.4 hPa Calm     80.2% 0 mm 0 W/m2
23:49 10.6 °C 7.5 °C 1014.4 hPa Calm     81% 0 mm 0 W/m2
23:54 10.5 °C 7.4 °C 1014.8 hPa Calm     81.5% 0 mm 0 W/m2
23:59 10.4 °C 7.5 °C 1014.8 hPa Calm     82% 0 mm 0 W/m2
Hartford County Weather
Compliments of Weather Underground - 4 mb